Monday, June 18, 2018, 8:47 PM EDT
Back to Local

KACK, Nantucket Memorial Airport

Location: Nantucket, MA, United States Lat: 41.25
Local Time: 8:47 PM EDT ( 0:47 GMT) Lon: -70.067
Time Zone: US/Eastern Elev: 49 ft

Show me the last for .
Show Decoded

2018-06-18 19:53 METAR KACK 182353Z 22013KT 1/4SM R24/1800FT FG VV002 17/17 A2986 RMK AO2 SLP110
                 T01720167 10189 20172 55014 =
2018-06-18 19:30 METAR KACK 182330Z 21013KT 1/4SM R24/1800FT FG VV002 17/17 A2985 RMK AO2
                 T01720167 =
2018-06-18 19:17 METAR KACK 182317Z 21014KT 1/4SM R24/2000V5500FT FG VV002 17/17 A2985 RMK AO2
                 T01720167 =
2018-06-18 18:53 METAR KACK 182253Z 20015KT 6SM BR OVC002 17/17 A2984 RMK AO2 SLP106 T01720167 =
2018-06-18 17:53 METAR KACK 182153Z 21016KT 10SM OVC003 18/17 A2986 RMK AO2 SLP112 T01830172 =
2018-06-18 16:53 METAR KACK 182053Z 21013KT 10SM FEW006 18/17 A2990 RMK AO2 SLP124 T01830172
                 56027 =
2018-06-18 15:53 METAR KACK 181953Z 21014KT 10SM FEW006 18/17 A2992 RMK AO2 SLP131 T01830167 =
2018-06-18 15:31 METAR KACK 181931Z 21012KT 10SM BKN006 19/17 A2993 RMK AO2 T01890167 =
2018-06-18 14:53 METAR KACK 181853Z 21012KT 10SM SCT006 18/17 A2994 RMK AO2 SLP138 T01830167 =
2018-06-18 14:26 METAR KACK 181826Z 21011KT 10SM BKN006 18/17 A2996 RMK AO2 T01830167 =
2018-06-18 14:15 METAR KACK 181815Z 21011KT 10SM SCT007 19/17 A2997 RMK AO2 T01890167 =
2018-06-18 13:53 METAR KACK 181753Z 21010KT 10SM CLR 18/16 A2998 RMK AO2 SLP151 T01830161 10206
                 20172 58013 =
2018-06-18 12:53 METAR KACK 181653Z 21012KT 10SM CLR 19/16 A2999 RMK AO2 SLP155 T01940161 =
2018-06-18 11:53 METAR KACK 181553Z 21014G19KT 10SM CLR 20/16 A3000 RMK AO2 SLP160 T02000161 =
2018-06-18 10:53 METAR KACK 181453Z 21009KT 10SM CLR 19/16 A3002 RMK AO2 SLP164 T01890161 58014 =
2018-06-18 09:53 METAR KACK 181353Z 23011KT 10SM CLR 19/16 A3003 RMK AO2 SLP170 T01890161 =
2018-06-18 08:53 METAR KACK 181253Z 21011KT 10SM CLR 18/16 A3004 RMK AO2 SLP172 T01780156 =
2018-06-18 07:53 METAR KACK 181153Z 22010KT 10SM CLR 17/16 A3006 RMK AO2 SLP178 T01720156 10172
                 20156 58003 =
2018-06-18 06:53 METAR KACK 181053Z 21009KT 10SM CLR 17/16 A3006 RMK AO2 SLP180 T01720156 =
2018-06-18 05:53 METAR KACK 180953Z 23007KT 10SM CLR 16/16 A3008 RMK AO2 SLP184 T01610156 =
2018-06-18 04:53 METAR KACK 180853Z AUTO 23007KT 10SM CLR 16/15 A3007 RMK AO2 SLP181 T01560150
                 58005 =
2018-06-18 03:53 METAR KACK 180753Z AUTO 22008KT 10SM CLR 16/15 A3008 RMK AO2 SLP184 T01560150 =
2018-06-18 02:53 METAR KACK 180653Z AUTO 23008KT 10SM CLR 16/15 A3008 RMK AO2 SLP185 T01610150 =
2018-06-18 01:53 METAR KACK 180553Z AUTO 23008KT 10SM CLR 16/15 A3008 RMK AO2 SLP186 T01560150
                 10167 20150 56005 =
2018-06-18 00:53 METAR KACK 180453Z AUTO 22005KT 6SM BR CLR 16/16 A3008 RMK AO2 SLP187 T01560156
                 402780144 =
2018-06-17 23:53 METAR KACK 180353Z AUTO 21005KT 6SM BR CLR 16/15 A3009 RMK AO2 SLP188 T01560150
                 =
2018-06-17 22:53 METAR KACK 180253Z AUTO 22006KT 10SM CLR 16/15 A3010 RMK AO2 SLP192 T01610150
                 58002 =
2018-06-17 21:53 METAR KACK 180153Z AUTO 19005KT 10SM CLR 15/14 A3011 RMK AO2 SLP195 T01500139 =
2018-06-17 20:53 METAR KACK 180053Z 20005KT 10SM CLR 16/14 A3011 RMK AO2 SLP195 T01560144 =

Support USWX by starting your Amazon purchase here.